createdAt,value
2023-05-04T00:02:47.934Z,0.00
2023-05-04T00:08:13.899Z,0.00
2023-05-04T00:13:06.405Z,0.00
2023-05-04T00:18:06.304Z,0.00
2023-05-04T00:23:06.205Z,0.00
2023-05-04T00:28:06.117Z,0.00
2023-05-04T00:33:06.107Z,0.00
2023-05-04T00:38:06.012Z,0.00
2023-05-04T00:43:05.926Z,0.00
2023-05-04T00:48:05.887Z,0.00
2023-05-04T00:53:05.816Z,0.00
2023-05-04T00:58:05.733Z,0.00
2023-05-04T01:03:05.740Z,0.00
2023-05-04T01:08:05.593Z,0.00
2023-05-04T01:13:05.618Z,0.00
2023-05-04T01:18:05.535Z,0.00
2023-05-04T01:23:05.427Z,0.00
2023-05-04T01:28:05.364Z,0.00
2023-05-04T01:33:05.329Z,0.00
2023-05-04T01:38:05.195Z,0.00
2023-05-04T01:43:05.174Z,0.00
2023-05-04T01:48:05.084Z,0.00
2023-05-04T01:53:04.990Z,0.00
2023-05-04T01:58:04.936Z,0.00
2023-05-04T02:03:04.944Z,0.00
2023-05-04T02:08:04.812Z,0.00
2023-05-04T02:13:04.788Z,0.00
2023-05-04T02:18:04.701Z,0.00
2023-05-04T02:23:04.576Z,0.00
2023-05-04T02:28:04.557Z,0.00
2023-05-04T02:33:04.610Z,0.00
2023-05-04T02:38:04.382Z,0.00
2023-05-04T02:43:04.342Z,0.00
2023-05-04T02:48:04.295Z,0.00
2023-05-04T02:53:04.216Z,0.00
2023-05-04T02:58:04.136Z,0.00
2023-05-04T03:03:04.138Z,0.00
2023-05-04T03:08:04.000Z,0.00
2023-05-04T03:13:04.063Z,0.00
2023-05-04T03:18:03.892Z,0.00
2023-05-04T03:23:03.845Z,0.00
2023-05-04T03:28:03.788Z,0.00
2023-05-04T03:33:03.761Z,4.00
2023-05-04T03:38:03.641Z,4.00
2023-05-04T03:43:03.587Z,8.00
2023-05-04T03:48:03.495Z,16.00
2023-05-04T03:53:03.429Z,28.00
2023-05-04T03:58:03.362Z,52.00
2023-05-04T04:03:03.371Z,80.00
2023-05-04T04:08:03.239Z,128.00
2023-05-04T04:13:03.180Z,184.00
2023-05-04T04:18:17.668Z,256.00
2023-05-04T04:23:10.066Z,344.00
2023-05-04T04:28:10.006Z,432.00
2023-05-04T04:33:10.091Z,524.00
2023-05-04T04:38:09.895Z,660.00
2023-05-04T04:43:09.777Z,804.00
2023-05-04T04:48:09.795Z,968.00
2023-05-04T04:53:09.676Z,1164.00
2023-05-04T04:58:09.613Z,1372.00
2023-05-04T05:03:09.617Z,1616.00
2023-05-04T05:08:09.472Z,1924.00
2023-05-04T05:13:09.437Z,2124.00
2023-05-04T05:18:09.512Z,2400.00
2023-05-04T05:23:09.257Z,2520.00
2023-05-04T05:28:09.193Z,2616.00
2023-05-04T05:33:09.147Z,2876.00
2023-05-04T05:38:09.112Z,3212.00
2023-05-04T05:43:08.984Z,3388.00
2023-05-04T05:48:08.982Z,3584.00
2023-05-04T05:53:08.865Z,3656.00
2023-05-04T05:58:08.821Z,3924.00
2023-05-04T06:03:08.799Z,4028.00
2023-05-04T06:08:08.683Z,4480.00
2023-05-04T06:13:08.658Z,5040.00
2023-05-04T06:18:08.614Z,38368.00
2023-05-04T06:23:08.446Z,56544.00
2023-05-04T06:28:08.421Z,55168.00
2023-05-04T06:33:08.385Z,50688.00
2023-05-04T06:38:08.642Z,42560.00
2023-05-04T06:43:08.199Z,37088.00
2023-05-04T06:48:08.206Z,39328.00
2023-05-04T06:53:08.078Z,31840.00
2023-05-04T06:58:08.036Z,28512.00
2023-05-04T07:03:08.043Z,28896.00
2023-05-04T07:08:07.938Z,16544.00
2023-05-04T07:13:07.881Z,12864.00
2023-05-04T07:18:07.803Z,12864.00
2023-05-04T07:23:07.687Z,20224.00
2023-05-04T07:28:07.649Z,19264.00
2023-05-04T07:33:07.548Z,24736.00
2023-05-04T07:38:07.538Z,22688.00
2023-05-04T07:43:07.446Z,23424.00
2023-05-04T07:48:07.408Z,14624.00
2023-05-04T07:53:07.283Z,13024.00
2023-05-04T07:58:07.274Z,12896.00
2023-05-04T08:03:07.160Z,12168.00
2023-05-04T08:08:07.297Z,16448.00
2023-05-04T08:13:07.027Z,21728.00
2023-05-04T08:18:07.001Z,26304.00
2023-05-04T08:23:06.908Z,32896.00
2023-05-04T08:28:06.823Z,35136.00
2023-05-04T08:33:06.794Z,32512.00
2023-05-04T08:38:06.715Z,33632.00
2023-05-04T08:43:06.623Z,34944.00
2023-05-04T08:48:06.578Z,27552.00
2023-05-04T08:53:06.512Z,23360.00
2023-05-04T08:58:06.535Z,24608.00
2023-05-04T09:03:06.426Z,19936.00
2023-05-04T09:08:06.382Z,15232.00
2023-05-04T09:13:06.286Z,13504.00
2023-05-04T09:18:06.297Z,13056.00
2023-05-04T09:23:06.117Z,12640.00
2023-05-04T09:28:06.082Z,11716.00
2023-05-04T09:33:06.031Z,11452.00
2023-05-04T09:38:05.968Z,11676.00
2023-05-04T09:43:05.858Z,11508.00
2023-05-04T09:48:05.871Z,11372.00
2023-05-04T09:53:05.761Z,11700.00
2023-05-04T09:58:05.681Z,12352.00
2023-05-04T10:03:05.608Z,12064.00
2023-05-04T10:08:05.560Z,11852.00
2023-05-04T10:13:05.534Z,11500.00
2023-05-04T10:18:05.425Z,11968.00
2023-05-04T10:23:05.350Z,10804.00
2023-05-04T10:28:05.291Z,10572.00
2023-05-04T10:33:05.248Z,11180.00
2023-05-04T10:38:05.173Z,11652.00
2023-05-04T10:43:05.084Z,12384.00
2023-05-04T10:48:05.178Z,12288.00
2023-05-04T10:53:05.249Z,12352.00
2023-05-04T10:58:04.890Z,12256.00
2023-05-04T11:03:04.909Z,12128.00
2023-05-04T11:08:04.755Z,12736.00
2023-05-04T11:13:05.917Z,15744.00
2023-05-04T11:18:04.687Z,19584.00
2023-05-04T11:23:04.548Z,18368.00
2023-05-04T11:28:04.513Z,19744.00
2023-05-04T11:33:04.484Z,17856.00
2023-05-04T11:38:04.373Z,19488.00
2023-05-04T11:43:04.333Z,16960.00
2023-05-04T11:48:04.294Z,17632.00
2023-05-04T11:53:04.182Z,13152.00
2023-05-04T11:58:04.098Z,10100.00
2023-05-04T12:03:04.063Z,8936.00
2023-05-04T12:08:04.021Z,8348.00
2023-05-04T12:13:03.974Z,7928.00
2023-05-04T12:18:03.905Z,7476.00
2023-05-04T12:23:03.820Z,7540.00
2023-05-04T12:28:03.768Z,7328.00
2023-05-04T12:33:03.706Z,7288.00
2023-05-04T12:38:03.594Z,7080.00
2023-05-04T12:43:03.598Z,6244.00
2023-05-04T12:48:03.579Z,6492.00
2023-05-04T12:53:03.392Z,6336.00
2023-05-04T12:58:03.332Z,5864.00
2023-05-04T13:03:03.313Z,6008.00
2023-05-04T13:08:03.207Z,6356.00
2023-05-04T13:13:03.179Z,6088.00
2023-05-04T13:18:03.211Z,6064.00
2023-05-04T13:23:03.012Z,5980.00
2023-05-04T13:28:02.947Z,5124.00
2023-05-04T13:33:10.240Z,5548.00
2023-05-04T13:38:03.862Z,5740.00
2023-05-04T13:43:02.753Z,5388.00
2023-05-04T13:48:02.735Z,5172.00
2023-05-04T13:53:02.625Z,5356.00
2023-05-04T13:58:02.566Z,5144.00
2023-05-04T14:03:02.571Z,5412.00
2023-05-04T14:08:02.431Z,4564.00
2023-05-04T14:13:02.366Z,5428.00
2023-05-04T14:18:03.459Z,5160.00
2023-05-04T14:23:02.211Z,5280.00
2023-05-04T14:28:02.219Z,5224.00
2023-05-04T14:33:02.211Z,3796.00
2023-05-04T14:38:02.012Z,4676.00
2023-05-04T14:43:01.943Z,4872.00
2023-05-04T14:48:01.938Z,5152.00
2023-05-04T14:53:01.860Z,4960.00
2023-05-04T14:58:01.793Z,4892.00
2023-05-04T15:03:01.827Z,4544.00
2023-05-04T15:08:01.733Z,3740.00
2023-05-04T15:13:01.583Z,3992.00
2023-05-04T15:18:01.707Z,2908.00
2023-05-04T15:23:01.419Z,2828.00
2023-05-04T15:28:01.433Z,4244.00
2023-05-04T15:33:01.351Z,3956.00
2023-05-04T15:38:01.254Z,3932.00
2023-05-04T15:43:01.434Z,4228.00
2023-05-04T15:48:01.303Z,3964.00
2023-05-04T15:53:01.017Z,3820.00
2023-05-04T15:58:01.094Z,3764.00
2023-05-04T16:03:00.978Z,3304.00
2023-05-04T16:08:00.990Z,3292.00
2023-05-04T16:13:01.104Z,3012.00
2023-05-04T16:18:00.782Z,2928.00
2023-05-04T16:23:00.688Z,2632.00
2023-05-04T16:28:00.588Z,2480.00
2023-05-04T16:33:00.613Z,2316.00
2023-05-04T16:38:00.461Z,2440.00
2023-05-04T16:43:00.414Z,2556.00
2023-05-04T16:48:00.374Z,2572.00
2023-05-04T16:53:00.265Z,2512.00
2023-05-04T16:58:00.176Z,2224.00
2023-05-04T17:03:00.258Z,2448.00
2023-05-04T17:08:00.102Z,2380.00
2023-05-04T17:13:02.269Z,2208.00
2023-05-04T17:17:59.991Z,2052.00
2023-05-04T17:22:59.911Z,1752.00
2023-05-04T17:27:59.803Z,1196.00
2023-05-04T17:32:59.776Z,1136.00
2023-05-04T17:37:59.659Z,940.00
2023-05-04T17:42:59.620Z,852.00
2023-05-04T17:47:59.579Z,788.00
2023-05-04T17:52:59.492Z,820.00
2023-05-04T17:57:59.401Z,812.00
2023-05-04T18:02:59.417Z,664.00
2023-05-04T18:07:59.274Z,568.00
2023-05-04T18:12:59.246Z,488.00
2023-05-04T18:17:59.164Z,464.00
2023-05-04T18:22:59.083Z,348.00
2023-05-04T18:27:59.021Z,272.00
2023-05-04T18:32:59.045Z,224.00
2023-05-04T18:37:58.882Z,184.00
2023-05-04T18:42:58.783Z,140.00
2023-05-04T18:47:58.773Z,96.00
2023-05-04T18:52:58.731Z,64.00
2023-05-04T18:57:58.643Z,40.00
2023-05-04T19:02:58.629Z,20.00
2023-05-04T19:07:58.528Z,12.00
2023-05-04T19:12:58.504Z,8.00
2023-05-04T19:17:58.404Z,0.00
2023-05-04T19:22:58.344Z,0.00
2023-05-04T19:27:58.689Z,0.00
2023-05-04T19:32:58.239Z,0.00
2023-05-04T19:37:58.137Z,0.00
2023-05-04T19:42:58.069Z,0.00
2023-05-04T19:47:58.079Z,0.00
2023-05-04T19:52:57.924Z,0.00
2023-05-04T19:57:57.842Z,0.00
2023-05-04T20:02:57.787Z,0.00
2023-05-04T20:07:57.697Z,0.00
2023-05-04T20:12:57.665Z,0.00
2023-05-04T20:17:57.594Z,0.00
2023-05-04T20:22:57.501Z,0.00
2023-05-04T20:27:57.411Z,0.00
2023-05-04T20:32:57.391Z,0.00
2023-05-04T20:37:57.304Z,0.00
2023-05-04T20:42:57.250Z,0.00
2023-05-04T20:47:57.193Z,0.00
2023-05-04T20:52:57.135Z,0.00
2023-05-04T20:57:57.005Z,0.00
2023-05-04T21:02:57.085Z,0.00
2023-05-04T21:07:56.938Z,0.00
2023-05-04T21:12:56.902Z,0.00
2023-05-04T21:17:56.763Z,0.00
2023-05-04T21:22:56.697Z,0.00
2023-05-04T21:27:56.627Z,0.00
2023-05-04T21:32:56.624Z,0.00
2023-05-04T21:37:56.476Z,0.00
2023-05-04T21:42:56.430Z,0.00
2023-05-04T21:47:56.438Z,0.00
2023-05-04T21:52:56.303Z,0.00
2023-05-04T21:57:56.212Z,0.00
2023-05-04T22:02:56.185Z,0.00
2023-05-04T22:07:56.077Z,0.00
2023-05-04T22:12:56.039Z,0.00
2023-05-04T22:17:55.976Z,0.00
2023-05-04T22:22:55.894Z,0.00
2023-05-04T22:27:55.818Z,0.00
2023-05-04T22:32:55.752Z,0.00
2023-05-04T22:37:55.687Z,0.00
2023-05-04T22:42:55.595Z,0.00
2023-05-04T22:47:55.595Z,0.00
2023-05-04T22:52:55.561Z,0.00
2023-05-04T22:57:55.421Z,0.00
2023-05-04T23:02:55.486Z,0.00
2023-05-04T23:07:55.288Z,0.00
2023-05-04T23:12:55.248Z,0.00
2023-05-04T23:17:55.152Z,0.00
2023-05-04T23:22:55.090Z,0.00
2023-05-04T23:27:55.012Z,0.00
2023-05-04T23:32:55.064Z,0.00
2023-05-04T23:37:54.906Z,0.00
2023-05-04T23:42:54.822Z,0.00
2023-05-04T23:47:54.830Z,0.00
2023-05-04T23:52:54.679Z,0.00
2023-05-04T23:57:54.630Z,0.00
